KSDM/SDM METAR and TAF weather

Enter ICAO airport designator
Station Type Date Time Source
KSDM METAR 2022/01/29 01:53 UTC NOAA

KSDM 290153Z 13013KT 10SM CLR 17/M14 A3015 RMK AO2 SLP209 T01671139


Station Type Date Time Source
KSDM Decoded METAR 2022/01/29 01:53 UTC NOAA

San Diego, Brown Field Municipal Airport, CA, United States (KSDM) 32-34-31N 116-59-35W 159M
Jan 28, 2022 - 08:53 PM EST / 2022.01.29 0153 UTC
Wind: from the SE (130 degrees) at 15 MPH (13 KT):0
Visibility: 10 mile(s):0
Sky conditions: clear
Temperature: 62.1 F (16.7 C)
Dew Point: 7.0 F (-13.9 C)
Relative Humidity: 11%
Pressure (altimeter): 30.15 in. Hg (1020 hPa)
ob: KSDM 290153Z 13013KT 10SM CLR 17/M14 A3015 RMK AO2 SLP209 T01671139
cycle: 2

Station Type Date Time Source
KSDM TAF UTC NOAA

Error!

Example: see airport list